Tiempo atmosférico en la estación meteorológica de San Pedro Manrique, Soria (1096 m.)



Fecha
DESCASC
Temp. máxima en grados centígrados (hora)
DESCASC
Temp. mínima en grados centígrados (hora)
DESCASC
Temp. media en grados centígrados
DESCASC
Racha de viento máxima en m/sg (hora)
DESCASC
Velocidad máxima media en intervalos de 10 minutos(hora)
DESCASC
Precipitaciones diarias en mm
DESCASC
Precipitaciones de 00:00 a 06:00 en mm
DESCASC
Precipitaciones de 06:00 a 12:00 en mm
DESCASC
Precipitaciones de 12:00 a 18:00 en mm
DESCASC
Precipitaciones de 18:00 a 24:00 en mm
DESCASC
20-12-2019 10.1 (01:20) 5.1 (00:00) 7.6 23.89 (00:20) 15.28 (00:10) -- -- -- -- --
19-12-2019 9.7 (20:30) 4.5 (00:00) 7.1 22.22 (23:59) 13.33 (20:30) -- -- -- -- --
14-01-2020 7.3 (14:40) -1.9 (-00:0) 2.7 14.72 (14:40) 9.44 (13:50) -- -- -- -- --
10-01-2020 5.4 (00:00) 1.7 (00:00) 3.6 15.83 (18:10) 8.06 (04:50) -- -- -- -- --
17-01-2020 8.4 (14:30) -2.8 (-00:0) 2.8 13.89 (11:40) 7.78 (11:40) 0 0 0 0 0
09-01-2020 12.3 (15:00) -0.6 (-00:0) 5.9 12.78 (17:00) 7.22 (15:40) -- -- -- -- --
23-12-2019 11.7 (15:40) 1.2 (00:00) 6.4 11.11 (16:10) 6.67 (16:50) -- -- -- -- --
16-01-2020 10.8 (15:20) 3.1 (00:00) 7 11.39 (16:40) 6.39 (05:50) -- -- -- -- 0
13-01-2020 10.1 (14:00) -5.5 (-00:0) 2.3 11.67 (19:50) 6.11 (21:50) -- -- -- -- --
15-01-2020 7 (16:10) 0.8 (00:00) 3.9 10 (07:10) 5.83 (00:20) -- -- -- -- --
04-01-2020 7.5 (14:10) -2.1 (-00:0) 2.7 9.44 (11:50) 4.44 (03:20) -- -- -- -- --
26-12-2019 10.5 (00:40) -1.9 (-00:0) 4.3 7.78 (00:20) 4.17 (12:10) -- -- -- -- --
24-12-2019 14.3 (14:10) 0.6 (23:59) 7.5 7.5 (15:00) 4.17 (15:00) -- -- -- -- --
25-12-2019 16.7 (13:50) -1.2 (-00:0) 7.8 6.67 (14:30) 3.89 (12:50) -- -- -- -- --
12-01-2020 12.2 (15:30) -7.9 (08:10) 2.1 7.78 (14:10) 3.89 (12:40) -- -- -- -- --
11-01-2020 11.7 (15:10) -5 (-00:0) 3.3 5.83 (13:10) 3.89 (02:50) -- -- -- -- --
08-01-2020 13.7 (15:10) 0.1 (00:00) 6.9 6.11 (04:20) 3.61 (11:30) -- -- -- -- --
05-01-2020 14.7 (15:10) -4.1 (-00:0) 5.3 5 (12:50) 3.06 (12:50) -- -- -- -- --
31-12-2019 14.2 (13:50) -2.5 (-00:0) 5.8 4.72 (14:30) 2.78 (14:10) -- -- -- -- --
06-01-2020 13.5 (14:20) -3.7 (-00:0) 4.9 4.17 (15:20) 2.5 (15:20) -- -- -- -- --
07-01-2020 15.7 (15:50) -4.4 (-00:0) 5.6 4.72 (14:40) 2.5 (14:50) -- -- -- -- --
30-12-2019 10.7 (15:10) -2.5 (-00:0) 4.1 4.44 (15:30) 2.22 (14:40) -- -- -- -- --
03-01-2020 -- (--) -- (--) -- -- (--) -- (--) -- -- -- -- --
02-01-2020 -- (--) -- (--) -- -- (--) -- (--) -- -- -- -- --
01-01-2020 -- (--) -- (--) -- -- (--) -- (--) -- -- -- -- --
29-12-2019 -- (--) -- (--) -- -- (--) -- (--) -- -- -- -- --
22-12-2019 -- (--) -- (--) -- -- (--) -- (--) -- -- -- -- --
28-12-2019 -- (--) -- (--) -- -- (--) -- (--) -- -- -- -- --
27-12-2019 -- (--) -- (--) -- -- (--) -- (--) -- -- -- -- --
21-12-2019 -- (--) -- (--) -- -- (--) -- (--) -- -- -- -- --

Gráficas

Temp. máximas Temp. mínimas Temp. medias Precipitaciones Rachas de viento máximas Velocidades máximas media en intervalos de 10 minutos

Datos horarios

Fecha y hora oficial Temperatura (ºC) Velocidad del viento (km/h) Dirección del viento Racha (km/h) Dirección de racha Precipitación (mm) Presión (hPa) Tendencia (hPa) Humedad (%)
2020-01-17 23:00:00 -2 0 Calma 5 Sur 0 -- -- 79
2020-01-17 22:00:00 -1.1 2 Sudeste 5 Noroeste 0 -- -- 77
2020-01-17 21:00:00 0 3 Oeste 6 Noroeste 0 -- -- 73
2020-01-17 20:00:00 1.2 2 Oeste 8 Oeste 0 -- -- 68
2020-01-17 19:00:00 2.9 4 Oeste 9 Sudoeste 0 -- -- 62
2020-01-17 18:00:00 4.6 5 Sudoeste 21 Oeste 0 -- -- 58
2020-01-17 17:00:00 6.1 15 Oeste 32 Oeste 0 -- -- 54
2020-01-17 16:00:00 7.2 18 Oeste 39 Oeste 0 -- -- 46
2020-01-17 15:00:00 7.9 15 Oeste 39 Sudoeste 0 -- -- 48
2020-01-17 14:00:00 7.7 17 Oeste 39 Oeste 0 -- -- 50
2020-01-17 13:00:00 7.1 24 Oeste 43 Oeste 0 -- -- 50
2020-01-17 12:00:00 7.9 26 Oeste 50 Oeste 0 -- -- 52
2020-01-17 11:00:00 6.8 14 Oeste 27 Oeste 0 -- -- 70
2020-01-17 10:00:00 5.5 8 Sudoeste 26 Sudoeste 0 -- -- 76
2020-01-17 09:00:00 4.3 9 Sudoeste 32 Sudoeste 0 -- -- 79
2020-01-17 08:00:00 4.6 17 Sudoeste 39 Sudoeste -- -- -- 79
2020-01-17 07:00:00 4.7 18 Sudoeste 33 Sudoeste -- -- -- 76
2020-01-17 06:00:00 5 18 Sudoeste 34 Oeste -- -- -- 72
2020-01-17 05:00:00 5.4 18 Sudoeste 43 Sudoeste -- -- -- 72
2020-01-17 04:00:00 4.3 3 Oeste 13 Noroeste -- -- -- 80
2020-01-17 03:00:00 4.5 7 Oeste 19 Sudoeste -- -- -- 80
2020-01-17 02:00:00 4.8 8 Sudoeste 22 Sudoeste -- -- -- 78
2020-01-17 01:00:00 5.3 5 Sudoeste 15 Oeste -- -- -- 75
2020-01-17 00:00:00 5.9 6 Noroeste 23 Oeste -- -- -- 78
2020-01-16 23:00:00 5.2 3 Sur 22 Sur -- -- -- 82
2020-01-16 22:00:00 5.5 8 Sur 32 Sudoeste -- -- -- 80
2020-01-16 21:00:00 5.3 12 Sudoeste 26 Sur -- -- -- 79
2020-01-16 20:00:00 5.4 9 Sudoeste 23 Sur -- -- -- 76
2020-01-16 19:00:00 6 10 Sudoeste 39 Sudoeste -- -- -- 76
2020-01-16 18:00:00 7.4 22 Sudoeste 41 Sudoeste -- -- -- 76
2020-01-16 17:00:00 9 18 Sur 41 Sur -- -- -- 71
2020-01-16 16:00:00 9.6 17 Sur 38 Sudoeste -- -- -- 72
2020-01-16 15:00:00 9.9 15 Sur 36 Sur -- -- -- 73
2020-01-16 14:00:00 8.8 18 Sudoeste 34 Sudoeste -- -- -- 77
2020-01-16 13:00:00 7.5 16 Sudoeste 33 Sur -- -- -- 83
2020-01-16 12:00:00 6.7 15 Sudoeste 30 Sudoeste -- -- -- 84
2020-01-16 11:00:00 6.2 12 Sudoeste -- -- -- -- -- 85
2020-01-16 10:00:00 5.4 16 Sudoeste 29 Sudoeste -- -- -- 90
2020-01-16 09:00:00 4.1 6 Sudoeste 28 Sudoeste -- -- -- 91
2020-01-16 08:00:00 3.8 15 Sudoeste 24 Sudoeste -- -- -- 90
2020-01-16 07:00:00 3.3 9 Sur 34 Sur -- -- -- 89
2020-01-16 06:00:00 3.6 21 Sur 31 Sur -- -- -- 86
2020-01-16 05:00:00 4.2 9 Sur 17 Sudoeste -- -- -- 86
2020-01-16 04:00:00 4.1 3 Sudeste 15 Sudeste -- -- -- 86
2020-01-16 03:00:00 4.4 7 Sudeste 21 Sudeste -- -- -- 85
2020-01-16 02:00:00 4.4 4 Sur 26 Sur -- -- -- 85
2020-01-16 01:00:00 4.4 16 Sur 27 Sur -- -- -- 86
2020-01-16 00:00:00 3.2 10 Sur 22 Sur -- -- -- 87
2020-01-15 23:00:00 1.6 0 Calma 13 Sur -- -- -- 87
2020-01-15 22:00:00 2.9 3 Sur 15 Sur -- -- -- 86
2020-01-15 21:00:00 3.5 8 Sur 15 Sur -- -- -- 84
2020-01-15 20:00:00 4 5 Sudoeste 17 Sur -- -- -- 82
2020-01-15 19:00:00 5.3 10 Sur 28 Sur -- -- -- 80
2020-01-15 18:00:00 5.6 13 Sur 29 Sur -- -- -- 80
2020-01-15 17:00:00 6.2 4 Sur 16 Sudoeste -- -- -- 80
2020-01-15 16:00:00 6.9 8 Sudoeste 22 Sur -- -- -- 73
2020-01-15 15:00:00 6.7 9 Sudoeste 17 Sur -- -- -- 72
2020-01-15 14:00:00 6.4 9 Sur 28 Sudoeste -- -- -- 71
2020-01-15 13:00:00 5.9 11 Sudoeste 24 Sudoeste -- -- -- 73
2020-01-15 12:00:00 4.6 11 Sudoeste 26 Sudoeste -- -- -- 77
2020-01-15 11:00:00 3.9 9 Sudoeste 24 Sudoeste -- -- -- 80
2020-01-15 10:00:00 2.8 4 Sudoeste 17 Oeste -- -- -- 83
2020-01-15 09:00:00 2.6 6 Sur 24 Sur -- -- -- 84
2020-01-15 08:00:00 2.7 12 Sur 36 Sur -- -- -- 84
2020-01-15 07:00:00 2.4 18 Sur 32 Sur -- -- -- 85
2020-01-15 06:00:00 1.8 6 Sudoeste 20 Sudoeste -- -- -- 84
2020-01-15 05:00:00 1.6 12 Sudoeste 23 Sudoeste -- -- -- 83
2020-01-15 04:00:00 0.9 7 Sudoeste 30 Sur -- -- -- 82
2020-01-15 03:00:00 1 19 Sudoeste 31 Sur -- -- -- 80
2020-01-15 02:00:00 1.1 16 Sur 28 Sur -- -- -- 78
2020-01-15 01:00:00 0.8 15 Sudoeste 29 Sudoeste -- -- -- 79
2020-01-15 00:00:00 0.8 18 Sudoeste 30 Sudoeste -- -- -- 79
2020-01-14 23:00:00 1.3 16 Sudoeste 31 Sudoeste -- -- -- 76
2020-01-14 22:00:00 2 22 Sudoeste 33 Oeste -- -- -- 75
2020-01-14 21:00:00 2.5 19 Sudoeste 32 Sudoeste -- -- -- 74
2020-01-14 20:00:00 3.3 17 Sudoeste 37 Oeste -- -- -- 71
2020-01-14 19:00:00 4.4 23 Sudoeste 51 Oeste -- -- -- 64
2020-01-14 18:00:00 4.5 28 Sudoeste 51 Sudoeste -- -- -- 63
2020-01-14 17:00:00 5.5 18 Sudoeste 35 Sudoeste -- -- -- 59
2020-01-14 16:00:00 7 19 Sur 38 Sur -- -- -- 56
2020-01-14 15:00:00 6.9 27 Sur 53 Sur -- -- -- 56
2020-01-14 14:00:00 5.8 31 Sur 48 Sur -- -- -- 57
2020-01-14 13:00:00 5.5 26 Sur 42 Sur -- -- -- 61
2020-01-14 12:00:00 4.4 16 Sur 32 Sur -- -- -- 63
2020-01-14 11:00:00 4.3 16 Sur 30 Sudoeste -- -- -- 62
2020-01-14 10:00:00 1.9 0 Calma 16 Sur -- -- -- 67
2020-01-14 09:00:00 -1.6 0 Calma 9 Sudeste -- -- -- 77
2020-01-14 08:00:00 -1.9 0 Calma 5 Oeste -- -- -- 76
2020-01-14 07:00:00 -1.6 0 Calma 8 Sudoeste -- -- -- 73
2020-01-14 06:00:00 -0.2 0 Calma 13 Sur -- -- -- 69
2020-01-14 05:00:00 1.6 9 Sur 17 Sudoeste -- -- -- 64
2020-01-14 04:00:00 1.5 3 Sudoeste 17 Sur -- -- -- 60
2020-01-14 03:00:00 2.2 5 Sur 13 Sudeste -- -- -- 54
2020-01-14 02:00:00 1.1 5 Oeste 19 Sudeste -- -- -- 52
2020-01-14 01:00:00 1.9 7 Sur 10 Sur -- -- -- 50
2020-01-14 00:00:00 2.6 8 Sudoeste 35 Sudoeste -- -- -- 48
2020-01-13 23:00:00 1.8 5 Sur 33 Sudoeste -- -- -- 58
2020-01-13 22:00:00 5.8 22 Sudoeste 37 Sudoeste -- -- -- 32
2020-01-13 21:00:00 4.7 15 Sudoeste 30 Sudoeste -- -- -- 36
2020-01-13 20:00:00 5.4 13 Sudoeste 42 Sudoeste -- -- -- 35
2020-01-13 19:00:00 5.8 13 Sudoeste 37 Sur -- -- -- 36
2020-01-13 18:00:00 6.1 11 Sudoeste 40 Sur -- -- -- 38
2020-01-13 17:00:00 8.2 17 Sudoeste 32 Sudoeste -- -- -- 32
2020-01-13 16:00:00 8.2 4 Sur 39 Sudoeste -- -- -- 41
2020-01-13 15:00:00 8.8 8 Noroeste 26 Oeste -- -- -- 35
2020-01-13 14:00:00 10.1 17 Sudoeste 31 Sudoeste -- -- -- 26
2020-01-13 13:00:00 9.9 4 Sur 15 Norte -- -- -- 32
2020-01-13 12:00:00 7.6 4 Sur 16 Sudoeste -- -- -- 36
2020-01-13 11:00:00 1.8 2 Sudoeste 7 Sudoeste -- -- -- 62
2020-01-13 10:00:00 -1.9 2 Sudeste 6 Sudeste -- -- -- 75
2020-01-13 09:00:00 -4.5 2 Sudeste 6 Sudeste -- -- -- 79
2020-01-13 08:00:00 -4.6 0 Calma 5 Sudoeste -- -- -- 77
2020-01-13 07:00:00 -5.3 0 Calma 2 Sudeste -- -- -- 80
2020-01-13 06:00:00 -5.4 0 Calma 3 Sur -- -- -- 80
2020-01-13 05:00:00 -5.2 0 Calma 2 Sur -- -- -- 79
2020-01-13 04:00:00 -5 0 Calma 3 Oeste -- -- -- 78
2020-01-13 03:00:00 -4.6 2 Sur 5 Sur -- -- -- 77
2020-01-13 02:00:00 -4.4 0 Calma 3 Sudeste -- -- -- 76
2020-01-13 01:00:00 -3.8 0 Calma 6 Sudoeste -- -- -- 72
2020-01-13 00:00:00 -3.6 0 Calma 4 Sur -- -- -- 71
2020-01-12 23:00:00 -3 2 Sur 5 Sur -- -- -- 68
2020-01-12 22:00:00 -2.2 0 Calma 3 Sudeste -- -- -- 66
2020-01-12 21:00:00 -0.9 2 Sur 5 Sur -- -- -- 57
2020-01-12 20:00:00 0.8 0 Calma 5 Sur -- -- -- 52
2020-01-12 19:00:00 3.1 0 Calma 6 Norte -- -- -- 46
2020-01-12 18:00:00 7.3 3 Norte 15 Nordeste -- -- -- 32
2020-01-12 17:00:00 10.3 8 Nordeste 18 Nordeste -- -- -- 21
2020-01-12 16:00:00 11.5 12 Nordeste 22 Nordeste -- -- -- 20
2020-01-12 15:00:00 11.8 10 Norte 28 Norte -- -- -- 19
2020-01-12 14:00:00 11.2 8 Norte 23 Nordeste -- -- -- 18
2020-01-12 13:00:00 10.1 13 Nordeste 21 Nordeste -- -- -- 20
2020-01-12 12:00:00 7.8 5 Nordeste 14 Nordeste -- -- -- 21
2020-01-12 11:00:00 0.5 2 Sur 5 Nordeste -- -- -- 65
2020-01-12 10:00:00 -4.1 0 Calma 5 Sudoeste -- -- -- 72
2020-01-12 09:00:00 -7.6 0 Calma 3 Norte -- -- -- 76
2020-01-12 08:00:00 -7.7 0 Calma 3 Sur -- -- -- 77
2020-01-12 07:00:00 -7.5 0 Calma 2 Sudoeste -- -- -- 79
2020-01-12 06:00:00 -7.4 0 Calma 2 Sudeste -- -- -- 79
2020-01-12 05:00:00 -7.1 0 Calma 2 Sur -- -- -- 79
2020-01-12 04:00:00 -6.7 0 Calma 2 Sudeste -- -- -- 79
2020-01-12 03:00:00 -6.4 0 Calma 2 Este -- -- -- 79
2020-01-12 02:00:00 -6 0 Calma 2 Sudoeste -- -- -- 79
2020-01-12 01:00:00 -5.5 0 Calma 4 Sur -- -- -- 75
2020-01-12 00:00:00 -5 0 Calma 2 Noroeste -- -- -- 78
2020-01-11 23:00:00 -4 0 Calma 4 Sur -- -- -- 76
2020-01-11 22:00:00 -3.1 0 Calma 3 Sudeste -- -- -- 75
2020-01-11 21:00:00 -2.2 0 Calma 3 Sur -- -- -- 73
2020-01-11 20:00:00 -0.5 0 Calma 2 Sur -- -- -- 68
2020-01-11 19:00:00 1.8 0 Calma 8 Norte -- -- -- 62
2020-01-11 18:00:00 4.8 7 Norte 10 Norte -- -- -- 51
2020-01-11 17:00:00 8.5 5 Nordeste 12 Nordeste -- -- -- 41
2020-01-11 16:00:00 10.3 5 Nordeste 11 Nordeste -- -- -- 28
2020-01-11 15:00:00 11.4 2 Oeste 11 Noroeste -- -- -- 23
2020-01-11 14:00:00 9.1 7 Oeste 21 Oeste -- -- -- 29
2020-01-11 13:00:00 7.5 12 Oeste 21 Oeste -- -- -- 45
2020-01-11 12:00:00 4.9 5 Oeste 13 Oeste -- -- -- 57
2020-01-11 11:00:00 0.9 0 Calma 5 Sudeste -- -- -- 73
2020-01-11 10:00:00 -1.8 0 Calma 3 Norte -- -- -- 81
2020-01-11 09:00:00 -4.2 0 Calma 4 Noroeste -- -- -- 84
2020-01-11 08:00:00 -3.9 0 Calma 5 Sudeste -- -- -- 84
2020-01-11 07:00:00 -3.2 0 Calma 7 Noroeste -- -- -- 82
2020-01-11 06:00:00 -2.1 0 Calma 4 Noroeste -- -- -- 80
2020-01-11 05:00:00 -0.9 0 Calma 16 Noroeste -- -- -- 77
2020-01-11 04:00:00 -0.3 4 Noroeste 16 Oeste -- -- -- 77
2020-01-11 03:00:00 0.5 10 Oeste 21 Oeste -- -- -- 77
2020-01-11 02:00:00 -0.5 0 Calma 12 Sur -- -- -- 80
2020-01-11 01:00:00 0.8 4 Sur 12 Sur -- -- -- 77
2020-01-11 00:00:00 1.7 6 Sur 17 Noroeste -- -- -- 75
2020-01-10 23:00:00 2.7 4 Noroeste 26 Nordeste -- -- -- 74
2020-01-10 22:00:00 2.7 3 Nordeste 34 Norte -- -- -- 76
2020-01-10 21:00:00 2.9 14 Norte 31 Norte -- -- -- 76
2020-01-10 20:00:00 2.8 7 Noroeste 30 Noroeste -- -- -- 74
2020-01-10 19:00:00 2.9 14 Noroeste 57 Noroeste -- -- -- 72
2020-01-10 18:00:00 3.3 23 Noroeste 49 Noroeste -- -- -- 73
2020-01-10 17:00:00 3.7 13 Noroeste 34 Noroeste -- -- -- 75
2020-01-10 16:00:00 4 9 Noroeste 34 Noroeste -- -- -- 76
2020-01-10 15:00:00 4.9 10 Noroeste 31 Norte -- -- -- 68
2020-01-10 14:00:00 4.9 9 Nordeste 37 Noroeste -- -- -- 66
2020-01-10 13:00:00 4.1 16 Noroeste 34 Noroeste -- -- -- 65
2020-01-10 12:00:00 4 13 Noroeste 38 Noroeste -- -- -- 67
2020-01-10 11:00:00 3.5 14 Noroeste 36 Noroeste -- -- -- 68
2020-01-10 10:00:00 2.7 5 Oeste 30 Noroeste -- -- -- 71
2020-01-10 09:00:00 2.3 18 Noroeste 32 Noroeste -- -- -- 73
2020-01-10 08:00:00 2.6 13 Noroeste 32 Oeste -- -- -- 76
2020-01-10 07:00:00 2.7 12 Noroeste 35 Noroeste -- -- -- 76
2020-01-10 06:00:00 2.7 20 Noroeste 39 Noroeste -- -- -- 73
2020-01-10 05:00:00 2.8 23 Noroeste 44 Noroeste -- -- -- 73
2020-01-10 04:00:00 3 23 Noroeste 45 Noroeste -- -- -- 73
2020-01-10 03:00:00 2.8 7 Norte 22 Norte -- -- -- 84
2020-01-10 02:00:00 4.3 11 Nordeste 19 Nordeste -- -- -- 85
2020-01-10 01:00:00 4.7 9 Nordeste 22 Nordeste -- -- -- 84
2020-01-10 00:00:00 5.4 10 Nordeste 23 Norte -- -- -- 81
2020-01-09 23:00:00 7 5 Noroeste 13 Oeste -- -- -- 79
2020-01-09 22:00:00 6.9 4 Oeste 17 Sudoeste -- -- -- 77
2020-01-09 21:00:00 6.8 6 Sur 13 Sur -- -- -- 80
2020-01-09 20:00:00 7 4 Sur 9 Sudeste -- -- -- 79
2020-01-09 19:00:00 6.9 4 Sudeste 14 Sur -- -- -- 78
2020-01-09 18:00:00 7.5 5 Oeste 42 Sudoeste -- -- -- 76
2020-01-09 17:00:00 8.6 25 Sudoeste 46 Sudoeste -- -- -- 73
2020-01-09 16:00:00 10.4 25 Sudoeste 44 Sudoeste -- -- -- 67
2020-01-09 15:00:00 12.3 19 Sudoeste 36 Sudoeste -- -- -- 58
2020-01-09 14:00:00 10.3 21 Sur 40 Sur -- -- -- 62
2020-01-09 13:00:00 11 17 Sur 32 Sudoeste -- -- -- 60
2020-01-09 12:00:00 10.3 10 Sur 18 Sur -- -- -- 62
2020-01-09 11:00:00 5.1 0 Calma 5 Noroeste -- -- -- 77
2020-01-09 10:00:00 2 2 Noroeste 5 Noroeste -- -- -- 86
2020-01-09 09:00:00 0.5 0 Calma 4 Noroeste -- -- -- 86
2020-01-09 08:00:00 1.2 0 Calma 20 Sur -- -- -- 87
2020-01-09 07:00:00 -0.4 0 Calma 3 Noroeste -- -- -- 89
2020-01-09 06:00:00 -0.5 0 Calma 2 Sur -- -- -- 88
2020-01-09 05:00:00 -0.1 0 Calma 5 Oeste -- -- -- 88
2020-01-09 04:00:00 0.6 3 Este 5 Oeste -- -- -- 88
2020-01-09 03:00:00 1.1 0 Calma 4 Oeste -- -- -- 89
2020-01-09 02:00:00 0.5 0 Calma 4 Este -- -- -- 89
2020-01-09 01:00:00 0.2 0 Calma 4 Oeste -- -- -- 89
2020-01-09 00:00:00 0.2 2 Sur 3 Sur -- -- -- 88
2020-01-08 23:00:00 0.9 0 Calma 6 Sur -- -- -- 88
2020-01-08 22:00:00 1.5 0 Calma 0 Calma -- -- -- 86
2020-01-08 21:00:00 2.5 0 Calma 0 Calma -- -- -- 84
2020-01-08 20:00:00 3.5 0 Calma 0 Calma -- -- -- 83
2020-01-08 19:00:00 5.4 0 Calma 4 Noroeste -- -- -- 80
2020-01-08 18:00:00 7.6 2 Nordeste 12 Nordeste -- -- -- 76
2020-01-08 17:00:00 9.4 6 Nordeste 14 Nordeste -- -- -- 70
2020-01-08 16:00:00 12.3 5 Este 14 Este -- -- -- 61
2020-01-08 15:00:00 13.6 5 Este 15 Sudeste -- -- -- 57
2020-01-08 14:00:00 13.1 5 Nordeste 15 Nordeste -- -- -- 59
2020-01-08 13:00:00 12.1 10 Nordeste 19 Nordeste -- -- -- 60
2020-01-08 12:00:00 11.5 11 Nordeste 21 Nordeste -- -- -- 62
2020-01-08 11:00:00 10.1 5 Norte 14 Nordeste -- -- -- 66
2020-01-08 10:00:00 5.4 0 Calma 8 Sur -- -- -- 78
2020-01-08 09:00:00 3.7 2 Sudeste 8 Sudeste -- -- -- 81
2020-01-08 08:00:00 4.4 2 Este 6 Nordeste -- -- -- 80
2020-01-08 07:00:00 3.9 2 Oeste 8 Noroeste -- -- -- 82
2020-01-08 06:00:00 4.9 2 Norte 8 Noroeste -- -- -- 81
2020-01-08 05:00:00 5.2 0 Calma 22 Oeste -- -- -- 79
2020-01-08 04:00:00 4.3 0 Calma 13 Sudoeste -- -- -- 80
2020-01-08 03:00:00 2.6 0 Calma 8 Sudeste -- -- -- 78
2020-01-08 02:00:00 2.4 2 Sur 8 Sur -- -- -- 73
2020-01-08 01:00:00 2 3 Sudeste 8 Sudeste -- -- -- 73
2020-01-08 00:00:00 0.4 2 Este 6 Sur -- -- -- 71
2020-01-07 23:00:00 0.4 3 Sur 6 Sudeste -- -- -- 71
2020-01-07 22:00:00 0.9 3 Sur 7 Sur -- -- -- 67
2020-01-07 21:00:00 1.7 0 Calma 6 Sur -- -- -- 67
2020-01-07 20:00:00 3.1 0 Calma 4 Sudoeste -- -- -- 62
2020-01-07 19:00:00 5 0 Calma 7 Sur -- -- -- 55
2020-01-07 18:00:00 9.6 2 Noroeste 11 Nordeste -- -- -- 40
2020-01-07 17:00:00 13.3 6 Nordeste 15 Nordeste -- -- -- 29
2020-01-07 16:00:00 15.7 3 Sur 11 Este -- -- -- 29
2020-01-07 15:00:00 14.6 8 Nordeste 17 Este -- -- -- 28
2020-01-07 14:00:00 14.9 5 Nordeste 10 Nordeste -- -- -- 25
2020-01-07 13:00:00 12.5 3 Sur 6 Sudeste -- -- -- 38
2020-01-07 12:00:00 6.9 0 Calma 5 Sudeste -- -- -- 58
2020-01-07 11:00:00 2.7 0 Calma 5 Este -- -- -- 65
2020-01-07 10:00:00 -1.6 0 Calma 3 Sudoeste -- -- -- 75
2020-01-07 09:00:00 -4.3 0 Calma 4 Sur -- -- -- 78
2020-01-07 08:00:00 -4.3 0 Calma 5 Noroeste -- -- -- 79
2020-01-07 07:00:00 -4.3 0 Calma 4 Este -- -- -- 80
2020-01-07 06:00:00 -4.1 0 Calma 4 Sur -- -- -- 80
2020-01-07 05:00:00 -3.6 0 Calma 3 Oeste -- -- -- 80
2020-01-07 04:00:00 -3.4 0 Calma 4 Sur -- -- -- 81
2020-01-07 03:00:00 -2.8 0 Calma 9 Sudeste -- -- -- 79
2020-01-07 02:00:00 -2.5 0 Calma 3 Oeste -- -- -- 82
2020-01-07 01:00:00 -2.5 0 Calma 6 Sur -- -- -- 81
2020-01-07 00:00:00 -1.9 2 Sudoeste 4 Sudeste -- -- -- 81
2020-01-06 23:00:00 -1.5 3 Sur 5 Sur -- -- -- 80
2020-01-06 22:00:00 -0.6 0 Calma 5 Sudoeste -- -- -- 78
2020-01-06 21:00:00 0.1 4 Sur 7 Sur -- -- -- 75
2020-01-06 20:00:00 1.6 0 Calma 5 Sudoeste -- -- -- 71
2020-01-06 19:00:00 3.9 0 Calma 4 Norte -- -- -- 63
2020-01-06 18:00:00 6.6 3 Norte 9 Norte -- -- -- 52
2020-01-06 17:00:00 10.4 2 Norte 13 Nordeste -- -- -- 42
2020-01-06 16:00:00 12 6 Nordeste 15 Nordeste -- -- -- 38
2020-01-06 15:00:00 12.4 6 Nordeste 14 Nordeste -- -- -- 39
2020-01-06 14:00:00 12.7 5 Nordeste 14 Nordeste -- -- -- 34
2020-01-06 13:00:00 11 5 Nordeste 11 Nordeste -- -- -- 34
2020-01-06 12:00:00 7.2 0 Calma 4 Este -- -- -- 57
2020-01-06 11:00:00 3.2 0 Calma 5 Sudeste -- -- -- 69
2020-01-06 10:00:00 -0.9 2 Sudeste 4 Sudeste -- -- -- 77